Time;durP1;ratioP1;P1;durP2;ratioP2;P2;SDS_P1;SDS_P2;PMS_P1;PMS_P2;Temp;Humidity;BMP_temperature;BMP_pressure;BME280_temperature;BME280_humidity;BME280_pressure;Samples;Min_cycle;Max_cycle;Signal;HPM_P1;HPM_P2
2022/07/17 00:00:20;;;;;;;4.23;3.83;;;;;;;;;;5013127;28;20210;-89
2022/07/17 00:02:48;;;;;;;10.60;3.97;;;;;;;;;;5014406;28;20708;-89
2022/07/17 00:05:15;;;;;;;4.37;4.07;;;;;;;;;;5014295;28;20242;-89
2022/07/17 00:07:42;;;;;;;4.53;3.97;;;;;;;;;;5014109;28;20207;-89
2022/07/17 00:10:09;;;;;;;9.87;3.87;;;;;;;;;;5015248;28;20199;-89
2022/07/17 00:12:36;;;;;;;5.13;4.63;;;;;;;;;;5030881;28;20230;-87
2022/07/17 00:15:06;;;;;;;7.00;5.03;;;;;;;;;;5034274;28;20286;-88
2022/07/17 00:17:34;;;;;;;4.30;4.00;;;;;;;;;;5016372;28;20206;-88
2022/07/17 00:20:01;;;;;;;4.67;4.33;;;;;;;;;;5016456;28;20206;-88
2022/07/17 00:22:28;;;;;;;5.10;4.40;;;;;;;;;;5015333;28;20207;-88
2022/07/17 00:24:55;;;;;;;4.40;4.00;;;;;;;;;;5034222;28;20214;-89
2022/07/17 00:27:22;;;;;;;3.97;3.67;;;;;;;;;;5000045;28;20199;-89
2022/07/17 00:29:49;;;;;;;5.17;4.33;;;;;;;;;;5016785;28;20673;-88
2022/07/17 00:32:18;;;;;;;4.40;4.00;;;;;;;;;;5033744;28;20245;-90
2022/07/17 00:34:45;;;;;;;5.60;3.87;;;;;;;;;;5034132;28;20202;-91
2022/07/17 00:37:12;;;;;;;6.07;4.57;;;;;;;;;;5015077;28;20206;-92
2022/07/17 00:39:39;;;;;;;5.10;4.40;;;;;;;;;;5033259;28;20198;-93
2022/07/17 00:42:07;;;;;;;5.13;4.57;;;;;;;;;;5032389;28;20210;-91
2022/07/17 00:44:34;;;;;;;6.97;4.20;;;;;;;;;;5032414;28;20281;-89
2022/07/17 00:47:01;;;;;;;5.87;4.00;;;;;;;;;;5048905;28;20206;-90
2022/07/17 00:49:29;;;;;;;4.57;4.17;;;;;;;;;;5032972;28;20608;-92
2022/07/17 00:51:57;;;;;;;4.40;4.00;;;;;;;;;;5033197;28;20222;-91
2022/07/17 00:54:24;;;;;;;5.30;3.90;;;;;;;;;;5015938;28;20251;-90
2022/07/17 00:56:52;;;;;;;4.67;4.23;;;;;;;;;;5016264;28;20264;-91
2022/07/17 00:59:19;;;;;;;5.53;4.33;;;;;;;;;;5048960;28;20207;-92
2022/07/17 01:01:47;;;;;;;4.90;4.13;;;;;;;;;;5033209;28;20195;-91
2022/07/17 01:04:15;;;;;;;4.70;3.53;;;;;;;;;;5032936;28;20681;-90
2022/07/17 01:06:44;;;;;;;4.50;4.10;;;;;;;;;;5016379;28;20206;-90
2022/07/17 01:09:11;;;;;;;4.20;3.90;;;;;;;;;;5034507;28;20198;-90
2022/07/17 01:11:38;;;;;;;3.87;3.50;;;;;;;;;;5033576;28;20226;-90
2022/07/17 01:14:05;;;;;;;4.17;3.73;;;;;;;;;;5033131;28;20202;-92
2022/07/17 01:16:33;;;;;;;11.43;4.60;;;;;;;;;;5033515;28;20210;-93
2022/07/17 01:19:01;;;;;;;9.33;3.60;;;;;;;;;;5033037;28;20214;-93
2022/07/17 01:21:40;;;;;;;3.70;3.50;;;;;;;;;;4999520;28;20202;-92
2022/07/17 01:24:07;;;;;;;3.40;3.10;;;;;;;;;;5032623;28;20206;-92
2022/07/17 01:26:34;;;;;;;3.23;2.93;;;;;;;;;;5032964;28;20210;-93
2022/07/17 01:29:01;;;;;;;3.73;3.40;;;;;;;;;;5032679;28;20209;-91
2022/07/17 01:31:28;;;;;;;3.50;3.20;;;;;;;;;;5032278;28;20199;-91
2022/07/17 01:33:56;;;;;;;3.97;3.67;;;;;;;;;;5048717;28;20206;-91
2022/07/17 01:36:24;;;;;;;3.07;2.87;;;;;;;;;;5031325;28;20199;-90
2022/07/17 01:38:52;;;;;;;3.37;3.07;;;;;;;;;;5048528;28;20261;-91
2022/07/17 01:41:19;;;;;;;3.87;3.37;;;;;;;;;;5032663;28;20199;-87
2022/07/17 01:43:46;;;;;;;3.80;3.50;;;;;;;;;;4999236;28;20203;-88
2022/07/17 01:46:13;;;;;;;5.13;3.80;;;;;;;;;;5032736;28;20198;-89
2022/07/17 01:48:41;;;;;;;4.33;3.50;;;;;;;;;;5032386;28;20759;-89
2022/07/17 01:51:08;;;;;;;3.97;3.67;;;;;;;;;;5018585;28;20202;-90
2022/07/17 01:53:35;;;;;;;3.83;3.60;;;;;;;;;;5036138;28;20681;-89
2022/07/17 01:56:04;;;;;;;3.33;3.03;;;;;;;;;;5019153;28;20202;-89
2022/07/17 01:58:31;;;;;;;7.87;3.80;;;;;;;;;;5036406;28;20213;-88
2022/07/17 02:00:58;;;;;;;12.43;4.40;;;;;;;;;;5018699;28;20214;-88
2022/07/17 02:03:25;;;;;;;5.30;3.73;;;;;;;;;;5019402;28;20203;-87
2022/07/17 02:05:52;;;;;;;3.50;3.20;;;;;;;;;;5036913;28;20615;-88
2022/07/17 02:08:19;;;;;;;5.50;3.50;;;;;;;;;;5036895;28;20209;-90
2022/07/17 02:10:47;;;;;;;5.43;3.70;;;;;;;;;;5036604;28;20202;-92
2022/07/17 02:13:16;;;;;;;3.70;3.40;;;;;;;;;;5019230;28;20712;-92
2022/07/17 02:15:43;;;;;;;4.40;3.20;;;;;;;;;;5051677;28;20239;-92
2022/07/17 02:18:11;;;;;;;4.53;3.30;;;;;;;;;;5018131;28;20217;-92
2022/07/17 02:20:38;;;;;;;4.67;3.07;;;;;;;;;;5018954;28;20202;-92
2022/07/17 02:23:05;;;;;;;4.00;3.50;;;;;;;;;;5036071;28;20214;-93
2022/07/17 02:25:32;;;;;;;5.00;2.93;;;;;;;;;;5035285;28;20205;-93
2022/07/17 02:28:00;;;;;;;5.87;3.60;;;;;;;;;;5051368;28;20753;-89
2022/07/17 02:30:29;;;;;;;5.80;4.10;;;;;;;;;;5051027;28;20214;-88
2022/07/17 02:32:56;;;;;;;6.60;3.37;;;;;;;;;;5035667;28;20225;-90
2022/07/17 02:35:23;;;;;;;3.93;3.43;;;;;;;;;;5018344;28;20213;-89
2022/07/17 02:37:50;;;;;;;4.20;3.83;;;;;;;;;;5036191;28;20198;-89
2022/07/17 02:40:18;;;;;;;5.53;3.93;;;;;;;;;;5018663;28;20619;-87
2022/07/17 02:42:46;;;;;;;4.07;3.63;;;;;;;;;;5017615;28;20206;-87
2022/07/17 02:45:13;;;;;;;5.07;3.40;;;;;;;;;;5036065;28;20202;-89
2022/07/17 02:47:42;;;;;;;3.47;3.17;;;;;;;;;;5018003;28;20256;-85
2022/07/17 02:50:10;;;;;;;3.17;2.87;;;;;;;;;;5035116;28;20230;-84
2022/07/17 02:52:37;;;;;;;3.30;3.00;;;;;;;;;;5017214;28;20222;-86
2022/07/17 02:55:05;;;;;;;5.20;3.80;;;;;;;;;;5017286;28;20261;-88
2022/07/17 02:57:33;;;;;;;3.63;3.33;;;;;;;;;;5036030;28;20199;-91
2022/07/17 03:00:00;;;;;;;3.77;3.47;;;;;;;;;;5036139;28;20198;-90
2022/07/17 03:02:27;;;;;;;3.90;3.50;;;;;;;;;;5017929;28;20199;-85
2022/07/17 03:04:56;;;;;;;3.87;3.57;;;;;;;;;;5050046;28;20202;-86
2022/07/17 03:07:22;;;;;;;4.13;3.30;;;;;;;;;;5034714;28;20210;-85
2022/07/17 03:09:50;;;;;;;3.77;3.20;;;;;;;;;;5001235;28;20693;-86
2022/07/17 03:12:17;;;;;;;4.10;3.67;;;;;;;;;;5035046;28;20314;-86
2022/07/17 03:14:44;;;;;;;6.43;3.40;;;;;;;;;;5016746;28;20595;-86
2022/07/17 03:17:11;;;;;;;4.00;3.23;;;;;;;;;;5034540;28;20195;-86
2022/07/17 03:19:38;;;;;;;3.67;3.37;;;;;;;;;;5034285;28;20203;-86
2022/07/17 03:22:07;;;;;;;4.23;3.03;;;;;;;;;;5034131;28;20553;-86
2022/07/17 03:24:34;;;;;;;3.37;3.17;;;;;;;;;;5033309;28;20206;-85
2022/07/17 03:27:01;;;;;;;3.17;2.97;;;;;;;;;;5016895;28;20198;-86
2022/07/17 03:29:28;;;;;;;3.40;3.10;;;;;;;;;;5017192;28;20241;-86
2022/07/17 03:31:55;;;;;;;4.30;3.43;;;;;;;;;;5000203;28;20198;-86
2022/07/17 03:34:22;;;;;;;3.40;3.10;;;;;;;;;;5034421;28;20642;-86
2022/07/17 03:36:49;;;;;;;3.50;3.10;;;;;;;;;;5016798;28;20198;-86
2022/07/17 03:39:17;;;;;;;4.03;2.93;;;;;;;;;;5034055;28;20198;-85
2022/07/17 03:41:45;;;;;;;4.43;3.57;;;;;;;;;;5033986;28;20199;-85
2022/07/17 03:44:12;;;;;;;5.37;3.00;;;;;;;;;;5016600;28;20289;-85
2022/07/17 03:46:39;;;;;;;4.77;3.50;;;;;;;;;;5048877;28;20214;-85
2022/07/17 03:49:06;;;;;;;4.17;3.00;;;;;;;;;;5016799;28;20195;-87
2022/07/17 03:51:33;;;;;;;2.87;2.67;;;;;;;;;;5034818;28;20545;-86
2022/07/17 03:54:00;;;;;;;2.70;2.50;;;;;;;;;;5048909;28;20226;-87
2022/07/17 03:56:29;;;;;;;3.13;2.83;;;;;;;;;;5017294;28;20202;-87
2022/07/17 03:58:56;;;;;;;14.23;10.90;;;;;;;;;;5016661;28;20206;-85
2022/07/17 04:01:24;;;;;;;8.27;7.57;;;;;;;;;;5048920;28;20202;-86
2022/07/17 04:03:51;;;;;;;14.83;13.23;;;;;;;;;;5033841;28;20233;-86
2022/07/17 04:06:18;;;;;;;24.73;19.60;;;;;;;;;;5032857;28;20210;-86
2022/07/17 04:08:45;;;;;;;53.57;42.03;;;;;;;;;;5015901;28;20209;-85
2022/07/17 04:11:12;;;;;;;48.70;42.30;;;;;;;;;;5032078;28;20280;-86
2022/07/17 04:13:41;;;;;;;12.47;11.43;;;;;;;;;;5015659;28;20625;-87
2022/07/17 04:16:08;;;;;;;15.30;13.90;;;;;;;;;;5033653;28;20199;-88
2022/07/17 04:18:37;;;;;;;43.50;39.07;;;;;;;;;;5033864;28;20206;-86
2022/07/17 04:21:06;;;;;;;13.27;12.07;;;;;;;;;;5033864;28;20198;-88
2022/07/17 04:23:33;;;;;;;9.70;7.37;;;;;;;;;;5033861;28;20212;-87
2022/07/17 04:26:00;;;;;;;6.20;5.70;;;;;;;;;;5015940;28;20198;-85
2022/07/17 04:28:27;;;;;;;3.80;3.50;;;;;;;;;;5033510;28;20194;-87
2022/07/17 04:30:56;;;;;;;10.53;9.53;;;;;;;;;;5033597;28;20573;-81
2022/07/17 04:33:23;;;;;;;29.67;26.67;;;;;;;;;;5032807;28;20222;-81
2022/07/17 04:35:50;;;;;;;17.37;14.97;;;;;;;;;;5015472;28;20202;-80
2022/07/17 04:38:17;;;;;;;8.93;8.23;;;;;;;;;;5031688;28;20206;-81
2022/07/17 04:40:46;;;;;;;5.83;3.57;;;;;;;;;;5030788;28;20673;-82
2022/07/17 04:43:15;;;;;;;6.53;2.93;;;;;;;;;;5032956;28;20233;-82
2022/07/17 04:45:42;;;;;;;3.50;2.80;;;;;;;;;;5014924;28;20213;-81
2022/07/17 04:48:11;;;;;;;3.00;2.70;;;;;;;;;;5013648;28;20583;-82
2022/07/17 04:50:38;;;;;;;4.40;3.07;;;;;;;;;;5033420;28;20203;-81
2022/07/17 04:53:05;;;;;;;3.13;2.90;;;;;;;;;;5032071;28;20229;-81
2022/07/17 04:55:32;;;;;;;21.93;16.57;;;;;;;;;;5029901;28;20260;-82
2022/07/17 04:57:59;;;;;;;3.20;2.90;;;;;;;;;;4997875;28;20210;-83
2022/07/17 05:00:26;;;;;;;10.93;5.90;;;;;;;;;;5013496;28;20583;-82
2022/07/17 05:02:54;;;;;;;2.83;2.63;;;;;;;;;;5032072;28;20355;-83
2022/07/17 05:05:23;;;;;;;6.80;5.87;;;;;;;;;;5031783;28;20206;-83
2022/07/17 05:07:50;;;;;;;5.90;5.37;;;;;;;;;;5031756;28;20260;-81
2022/07/17 05:10:17;;;;;;;3.17;2.60;;;;;;;;;;5031420;28;20240;-80
2022/07/17 05:12:44;;;;;;;2.90;2.70;;;;;;;;;;5031670;28;20226;-81
2022/07/17 05:15:11;;;;;;;10.07;2.30;;;;;;;;;;5032354;28;20198;-81
2022/07/17 05:17:38;;;;;;;4.20;2.93;;;;;;;;;;5031844;28;20203;-81
2022/07/17 05:20:07;;;;;;;8.50;7.70;;;;;;;;;;5030462;28;20206;-81
2022/07/17 05:22:36;;;;;;;10.67;6.20;;;;;;;;;;5031235;28;20226;-80
2022/07/17 05:25:04;;;;;;;6.10;5.43;;;;;;;;;;4998183;28;20218;-80
2022/07/17 05:27:31;;;;;;;4.77;4.23;;;;;;;;;;5015082;28;20213;-82
2022/07/17 05:29:58;;;;;;;4.93;2.73;;;;;;;;;;5047894;28;20202;-81
2022/07/17 05:32:25;;;;;;;2.80;2.60;;;;;;;;;;5014325;28;20205;-79
2022/07/17 05:34:55;;;;;;;3.40;3.10;;;;;;;;;;5046941;28;20218;-81
2022/07/17 05:37:22;;;;;;;4.73;2.53;;;;;;;;;;5030163;28;20191;-81
2022/07/17 05:39:50;;;;;;;5.30;2.70;;;;;;;;;;5013682;28;20198;-80
2022/07/17 05:42:17;;;;;;;6.73;2.80;;;;;;;;;;5031943;28;20619;-82
2022/07/17 05:44:44;;;;;;;6.63;3.27;;;;;;;;;;5046622;28;20213;-80
2022/07/17 05:47:11;;;;;;;4.53;2.80;;;;;;;;;;4997651;28;20614;-80
2022/07/17 05:49:38;;;;;;;5.73;2.33;;;;;;;;;;5031920;28;20206;-80
2022/07/17 05:52:06;;;;;;;2.90;2.10;;;;;;;;;;5013914;28;20199;-80
2022/07/17 05:54:33;;;;;;;21.00;18.63;;;;;;;;;;5031616;28;20232;-80
2022/07/17 05:57:02;;;;;;;4.53;3.37;;;;;;;;;;5014049;28;20289;-81
2022/07/17 05:59:30;;;;;;;2.97;2.73;;;;;;;;;;5030299;28;20205;-81
2022/07/17 06:01:57;;;;;;;2.27;2.07;;;;;;;;;;5031323;28;20318;-79
2022/07/17 06:04:24;;;;;;;4.53;2.67;;;;;;;;;;5031818;28;20206;-81
2022/07/17 06:06:51;;;;;;;6.13;3.70;;;;;;;;;;5030488;28;20202;-80
2022/07/17 06:09:18;;;;;;;2.20;2.00;;;;;;;;;;5031356;28;20280;-81
2022/07/17 06:11:45;;;;;;;2.43;2.20;;;;;;;;;;5030282;28;20233;-81
2022/07/17 06:14:14;;;;;;;7.73;4.57;;;;;;;;;;5031330;28;20226;-81
2022/07/17 06:16:41;;;;;;;2.00;1.87;;;;;;;;;;5028118;28;20213;-83
2022/07/17 06:19:08;;;;;;;2.27;2.07;;;;;;;;;;5021130;28;20612;-83
2022/07/17 06:21:35;;;;;;;3.47;2.07;;;;;;;;;;5028801;28;20194;-83
2022/07/17 06:24:02;;;;;;;3.70;2.13;;;;;;;;;;5013115;28;20206;-84
2022/07/17 06:26:29;;;;;;;2.10;2.00;;;;;;;;;;5030869;28;20199;-82
2022/07/17 06:28:57;;;;;;;1.90;1.80;;;;;;;;;;5013457;28;20210;-83
2022/07/17 06:31:26;;;;;;;4.60;2.10;;;;;;;;;;5029611;28;20673;-82
2022/07/17 06:33:53;;;;;;;2.97;2.33;;;;;;;;;;4997668;28;20226;-83
2022/07/17 06:36:20;;;;;;;2.80;2.07;;;;;;;;;;4998453;28;20210;-84
2022/07/17 06:38:47;;;;;;;3.27;2.40;;;;;;;;;;5016178;28;20205;-81
2022/07/17 06:41:14;;;;;;;2.27;2.00;;;;;;;;;;5016855;28;20202;-82
2022/07/17 06:43:41;;;;;;;5.87;2.50;;;;;;;;;;5017116;28;20202;-83
2022/07/17 06:46:08;;;;;;;4.47;1.93;;;;;;;;;;5017130;28;20657;-81
2022/07/17 06:48:37;;;;;;;3.17;2.50;;;;;;;;;;5017915;28;20592;-82
2022/07/17 06:51:04;;;;;;;7.53;2.40;;;;;;;;;;5016771;28;20211;-83
2022/07/17 06:53:31;;;;;;;3.27;2.00;;;;;;;;;;5034588;28;20218;-81
2022/07/17 06:55:58;;;;;;;2.53;2.33;;;;;;;;;;5034958;28;20198;-81
2022/07/17 06:58:25;;;;;;;3.53;2.50;;;;;;;;;;5033341;28;20202;-82
2022/07/17 07:00:52;;;;;;;9.97;2.40;;;;;;;;;;5033472;28;20202;-82
2022/07/17 07:03:19;;;;;;;3.37;2.00;;;;;;;;;;5016550;28;20203;-82
2022/07/17 07:05:50;;;;;;;7.57;2.40;;;;;;;;;;5000086;28;20202;-81
2022/07/17 07:08:17;;;;;;;2.63;2.13;;;;;;;;;;5033785;28;20198;-81
2022/07/17 07:10:45;;;;;;;4.00;2.03;;;;;;;;;;5033565;28;20209;-81
2022/07/17 07:13:13;;;;;;;6.50;2.57;;;;;;;;;;5000931;28;20225;-82
2022/07/17 07:15:40;;;;;;;2.67;2.03;;;;;;;;;;5032951;28;20202;-83
2022/07/17 07:18:07;;;;;;;5.20;2.60;;;;;;;;;;5033810;28;20195;-82
2022/07/17 07:20:34;;;;;;;5.30;2.00;;;;;;;;;;5018230;28;20205;-83
2022/07/17 07:23:02;;;;;;;3.90;2.20;;;;;;;;;;5033171;28;20195;-83
2022/07/17 07:25:30;;;;;;;3.57;2.10;;;;;;;;;;5034218;28;20203;-83
2022/07/17 07:28:26;;;;;;;2.10;1.90;;;;;;;;;;5016492;28;20680;-82
2022/07/17 07:30:54;;;;;;;6.20;4.77;;;;;;;;;;5033311;28;20225;-82
2022/07/17 07:33:22;;;;;;;6.30;5.70;;;;;;;;;;5034871;28;20236;-81
2022/07/17 07:35:49;;;;;;;9.33;2.53;;;;;;;;;;5016984;28;20628;-81
2022/07/17 07:38:18;;;;;;;8.53;2.53;;;;;;;;;;5032908;28;20749;-83
2022/07/17 07:40:45;;;;;;;3.20;1.70;;;;;;;;;;5033997;28;20201;-83
2022/07/17 07:43:13;;;;;;;5.30;2.83;;;;;;;;;;5032088;28;20206;-82
2022/07/17 07:45:40;;;;;;;4.13;2.07;;;;;;;;;;5034221;28;20206;-81
2022/07/17 07:48:07;;;;;;;4.83;2.10;;;;;;;;;;5014115;28;20202;-81
2022/07/17 07:50:35;;;;;;;3.07;2.47;;;;;;;;;;5033620;28;20591;-81
2022/07/17 07:53:02;;;;;;;4.37;2.80;;;;;;;;;;5033682;28;20578;-83
2022/07/17 07:55:31;;;;;;;4.73;2.10;;;;;;;;;;5032085;28;20277;-83
2022/07/17 07:58:07;;;;;;;4.33;2.67;;;;;;;;;;5032384;28;20217;-82
2022/07/17 08:00:34;;;;;;;2.67;2.40;;;;;;;;;;5032984;28;20202;-82
2022/07/17 08:03:02;;;;;;;3.87;2.60;;;;;;;;;;5033686;28;20218;-82
2022/07/17 08:05:29;;;;;;;3.20;2.37;;;;;;;;;;5033465;28;20202;-81
2022/07/17 08:07:56;;;;;;;5.07;2.63;;;;;;;;;;5033538;28;20202;-82
2022/07/17 08:10:24;;;;;;;2.30;2.10;;;;;;;;;;5031809;28;20499;-81
2022/07/17 08:12:52;;;;;;;2.42;2.00;;;;;;;;;;5031624;28;20644;-81
2022/07/17 08:15:22;;;;;;;2.38;1.80;;;;;;;;;;5030566;28;20225;-82
2022/07/17 08:17:52;;;;;;;2.65;2.10;;;;;;;;;;5032078;28;20615;-81
2022/07/17 08:20:19;;;;;;;3.28;2.30;;;;;;;;;;5031651;28;20207;-81
2022/07/17 08:22:47;;;;;;;3.00;2.70;;;;;;;;;;5031829;28;20203;-80
2022/07/17 08:25:15;;;;;;;6.13;2.40;;;;;;;;;;5015568;28;20202;-80
2022/07/17 08:27:43;;;;;;;2.75;2.22;;;;;;;;;;5032768;28;20194;-81
2022/07/17 08:30:14;;;;;;;3.75;3.15;;;;;;;;;;5031794;28;20207;-82
2022/07/17 08:32:42;;;;;;;9.15;8.25;;;;;;;;;;5031929;28;20202;-82
2022/07/17 08:35:10;;;;;;;3.47;3.20;;;;;;;;;;5032531;28;20222;-82
2022/07/17 08:37:47;;;;;;;3.20;2.85;;;;;;;;;;5033252;28;20321;-81
2022/07/17 08:40:22;;;;;;;2.08;1.98;;;;;;;;;;5030068;28;20205;-82
2022/07/17 08:42:49;;;;;;;3.75;2.13;;;;;;;;;;5032805;28;20569;-81
2022/07/17 08:45:18;;;;;;;4.45;1.92;;;;;;;;;;5032490;28;20202;-81
2022/07/17 08:47:49;;;;;;;4.03;2.10;;;;;;;;;;5031622;28;20209;-81
2022/07/17 08:50:38;;;;;;;2.30;2.20;;;;;;;;;;5032246;28;20199;-82
2022/07/17 08:53:05;;;;;;;2.42;2.03;;;;;;;;;;5032064;28;20238;-82
2022/07/17 08:55:33;;;;;;;3.92;2.10;;;;;;;;;;5031284;28;20228;-81
2022/07/17 08:58:00;;;;;;;1.85;1.75;;;;;;;;;;5031860;28;20578;-83
2022/07/17 09:00:30;;;;;;;6.97;2.40;;;;;;;;;;5031174;28;20209;-80
2022/07/17 09:02:59;;;;;;;3.53;3.08;;;;;;;;;;5030557;28;20194;-81
2022/07/17 09:05:28;;;;;;;11.75;8.15;;;;;;;;;;5032612;28;20195;-81
2022/07/17 09:07:56;;;;;;;9.90;7.72;;;;;;;;;;5030645;28;20225;-81
2022/07/17 09:10:37;;;;;;;3.97;3.33;;;;;;;;;;5029989;28;20272;-84
2022/07/17 09:13:16;;;;;;;3.17;2.88;;;;;;;;;;5031222;28;20596;-80
2022/07/17 09:15:45;;;;;;;5.47;2.50;;;;;;;;;;5032752;28;20230;-81
2022/07/17 09:18:13;;;;;;;2.30;2.10;;;;;;;;;;5031871;28;20202;-82
2022/07/17 09:20:45;;;;;;;2.88;2.20;;;;;;;;;;5032387;28;20249;-83
2022/07/17 09:23:13;;;;;;;3.88;2.20;;;;;;;;;;5032048;28;20198;-81
2022/07/17 09:25:42;;;;;;;2.28;2.08;;;;;;;;;;5031934;28;20209;-83
2022/07/17 09:28:12;;;;;;;2.45;2.22;;;;;;;;;;5030703;28;20206;-82
2022/07/17 09:30:42;;;;;;;3.80;2.40;;;;;;;;;;5030760;28;20195;-81
2022/07/17 09:36:31;;;;;;;2.95;2.38;;;;;;;;;;5032175;28;20289;-77
2022/07/17 09:38:59;;;;;;;6.38;2.10;;;;;;;;;;5031562;28;20673;-78
2022/07/17 09:41:33;;;;;;;2.50;2.30;;;;;;;;;;5030953;28;20265;-77
2022/07/17 09:47:22;;;;;;;4.32;3.92;;;;;;;;;;5032006;28;20163;-78
2022/07/17 09:49:49;;;;;;;6.82;6.18;;;;;;;;;;5027828;28;20205;-77
2022/07/17 09:52:18;;;;;;;2.78;2.58;;;;;;;;;;5029891;28;20211;-78
2022/07/17 09:54:46;;;;;;;5.05;2.60;;;;;;;;;;5013597;28;20237;-79
2022/07/17 09:57:13;;;;;;;2.53;2.17;;;;;;;;;;5031776;28;20209;-78
2022/07/17 09:59:42;;;;;;;2.67;2.25;;;;;;;;;;5030519;28;20198;-78
2022/07/17 10:02:10;;;;;;;2.50;2.30;;;;;;;;;;5031849;28;20568;-78
2022/07/17 10:04:37;;;;;;;6.90;2.35;;;;;;;;;;5031905;28;20194;-78
2022/07/17 10:07:05;;;;;;;3.20;2.00;;;;;;;;;;5030147;28;20199;-78
2022/07/17 10:09:37;;;;;;;3.45;2.40;;;;;;;;;;5030874;28;20289;-77
2022/07/17 10:12:09;;;;;;;2.53;2.33;;;;;;;;;;5034591;28;20261;-77
2022/07/17 10:18:52;;;;;;;4.22;3.72;;;;;;;;;;5036744;28;20216;-77
2022/07/17 10:24:49;;;;;;;3.83;2.65;;;;;;;;;;5035735;28;20170;-77
2022/07/17 10:27:24;;;;;;;2.38;2.22;;;;;;;;;;5033687;28;20683;-77
2022/07/17 10:30:01;;;;;;;2.92;2.63;;;;;;;;;;5034825;28;20194;-78
2022/07/17 10:32:29;;;;;;;3.45;2.88;;;;;;;;;;5017498;28;20203;-78
2022/07/17 10:34:59;;;;;;;4.43;2.17;;;;;;;;;;5034785;28;20577;-80
2022/07/17 10:37:28;;;;;;;3.70;2.45;;;;;;;;;;5035516;28;20260;-78
2022/07/17 10:40:04;;;;;;;2.10;2.00;;;;;;;;;;5035509;28;20199;-77
2022/07/17 10:45:54;;;;;;;3.50;2.10;;;;;;;;;;5035502;28;20186;-78
2022/07/17 10:48:26;;;;;;;3.15;2.63;;;;;;;;;;5033368;28;20191;-78
2022/07/17 10:50:55;;;;;;;3.25;2.17;;;;;;;;;;5022100;28;20205;-78
2022/07/17 10:53:24;;;;;;;2.50;2.30;;;;;;;;;;5033262;28;20282;-79
2022/07/17 10:55:54;;;;;;;2.38;2.17;;;;;;;;;;5034909;28;20595;-78
2022/07/17 10:58:24;;;;;;;3.58;2.00;;;;;;;;;;5035159;28;20202;-78
2022/07/17 11:00:59;;;;;;;4.28;2.30;;;;;;;;;;5034505;28;20657;-78
2022/07/17 11:03:26;;;;;;;2.67;2.20;;;;;;;;;;5034748;28;20228;-78
2022/07/17 11:09:18;;;;;;;4.50;3.33;;;;;;;;;;5035748;28;20194;-78
2022/07/17 11:11:49;;;;;;;3.40;2.33;;;;;;;;;;5034461;28;20238;-78
2022/07/17 11:14:18;;;;;;;2.17;1.95;;;;;;;;;;5034677;28;20198;-79
2022/07/17 11:16:46;;;;;;;2.60;2.40;;;;;;;;;;5016741;28;20260;-78
2022/07/17 11:19:21;;;;;;;3.13;2.33;;;;;;;;;;5033242;28;20677;-78
2022/07/17 11:28:38;;;;;;;2.28;2.08;;;;;;;;;;5012531;28;20271;-78
2022/07/17 11:31:18;;;;;;;2.50;2.30;;;;;;;;;;5012725;28;20195;-79
2022/07/17 11:37:08;;;;;;;5.07;2.28;;;;;;;;;;5014488;28;20174;-79
2022/07/17 11:39:39;;;;;;;6.18;2.45;;;;;;;;;;4980488;28;20199;-81
2022/07/17 11:42:08;;;;;;;2.78;2.38;;;;;;;;;;5014260;28;20314;-79
2022/07/17 11:44:36;;;;;;;5.88;2.60;;;;;;;;;;5011638;28;20732;-81
2022/07/17 11:47:03;;;;;;;3.50;2.47;;;;;;;;;;5012670;28;20206;-79
2022/07/17 11:49:31;;;;;;;2.65;2.20;;;;;;;;;;5012720;28;20192;-78
2022/07/17 11:51:59;;;;;;;4.47;2.30;;;;;;;;;;5013134;28;20318;-78
2022/07/17 11:54:27;;;;;;;2.47;2.03;;;;;;;;;;5012336;28;20195;-78
2022/07/17 11:56:55;;;;;;;2.00;1.90;;;;;;;;;;5007220;28;20216;-77
2022/07/17 11:59:27;;;;;;;3.33;2.28;;;;;;;;;;5013663;28;20203;-78
2022/07/17 12:01:56;;;;;;;2.83;2.55;;;;;;;;;;5011754;28;20192;-78
2022/07/17 12:04:23;;;;;;;2.97;2.53;;;;;;;;;;5013291;28;20578;-78
2022/07/17 12:07:00;;;;;;;2.95;2.35;;;;;;;;;;5012975;28;20203;-78
2022/07/17 12:09:27;;;;;;;2.50;2.25;;;;;;;;;;5012364;28;20203;-77
2022/07/17 12:11:54;;;;;;;3.10;2.40;;;;;;;;;;5013396;28;20685;-78
2022/07/17 12:14:21;;;;;;;2.80;2.60;;;;;;;;;;5012688;28;20206;-76
2022/07/17 12:16:48;;;;;;;2.40;2.30;;;;;;;;;;5012113;28;20227;-79
2022/07/17 12:19:18;;;;;;;4.45;2.38;;;;;;;;;;5012964;28;20253;-77
2022/07/17 12:21:54;;;;;;;2.90;2.70;;;;;;;;;;5012211;28;20214;-78
2022/07/17 12:24:29;;;;;;;2.58;2.38;;;;;;;;;;5012756;28;20237;-77
2022/07/17 12:26:57;;;;;;;2.35;2.13;;;;;;;;;;5012146;28;20199;-77
2022/07/17 12:29:24;;;;;;;3.38;3.10;;;;;;;;;;5012942;28;20559;-77
2022/07/17 12:32:01;;;;;;;3.30;2.20;;;;;;;;;;5012067;28;20199;-78
2022/07/17 12:34:29;;;;;;;3.28;2.70;;;;;;;;;;5011963;28;20211;-78
2022/07/17 12:36:56;;;;;;;4.70;2.38;;;;;;;;;;5011969;28;20318;-78
2022/07/17 12:39:23;;;;;;;3.30;2.60;;;;;;;;;;5011652;28;20214;-78
2022/07/17 12:41:50;;;;;;;2.47;2.28;;;;;;;;;;5011378;28;20199;-77
2022/07/17 12:44:17;;;;;;;4.03;2.03;;;;;;;;;;5011191;28;20297;-78
2022/07/17 12:46:44;;;;;;;2.53;2.33;;;;;;;;;;5011280;28;20203;-78
2022/07/17 12:49:11;;;;;;;2.50;2.20;;;;;;;;;;5011491;28;20257;-77
2022/07/17 12:51:39;;;;;;;3.13;2.20;;;;;;;;;;5012664;28;20207;-77
2022/07/17 12:54:06;;;;;;;5.05;2.38;;;;;;;;;;5012562;28;20207;-77
2022/07/17 12:56:33;;;;;;;2.50;2.30;;;;;;;;;;5013093;28;20233;-77
2022/07/17 12:59:00;;;;;;;4.18;2.38;;;;;;;;;;5011470;28;20199;-77
2022/07/17 13:01:27;;;;;;;2.50;2.30;;;;;;;;;;5010694;28;20620;-80
2022/07/17 13:03:54;;;;;;;3.90;2.20;;;;;;;;;;5010930;28;20192;-77
2022/07/17 13:06:20;;;;;;;2.75;2.55;;;;;;;;;;5010675;28;20274;-77
2022/07/17 13:08:49;;;;;;;4.07;2.58;;;;;;;;;;5005943;28;20196;-76
2022/07/17 13:11:15;;;;;;;3.35;2.10;;;;;;;;;;5011365;28;20219;-78
2022/07/17 13:13:42;;;;;;;2.78;2.35;;;;;;;;;;5011426;28;20200;-78
2022/07/17 13:16:09;;;;;;;2.58;2.13;;;;;;;;;;5011555;28;20226;-77
2022/07/17 13:18:36;;;;;;;3.70;2.78;;;;;;;;;;5012154;28;20199;-77
2022/07/17 13:21:04;;;;;;;2.47;2.28;;;;;;;;;;5012020;28;20254;-79
2022/07/17 13:23:33;;;;;;;3.08;2.78;;;;;;;;;;5009855;28;20207;-79
2022/07/17 13:26:02;;;;;;;4.47;2.60;;;;;;;;;;4994683;28;20206;-79
2022/07/17 13:28:29;;;;;;;4.07;2.28;;;;;;;;;;5012096;28;20203;-78
2022/07/17 13:30:56;;;;;;;2.75;2.33;;;;;;;;;;5012020;28;20199;-78
2022/07/17 13:33:26;;;;;;;4.18;2.58;;;;;;;;;;4994562;28;20199;-79
2022/07/17 13:35:55;;;;;;;2.67;2.47;;;;;;;;;;4994580;28;20226;-80
2022/07/17 13:38:22;;;;;;;2.47;2.20;;;;;;;;;;5011883;28;20211;-77
2022/07/17 13:40:50;;;;;;;2.78;2.22;;;;;;;;;;5011644;28;20210;-77
2022/07/17 13:43:19;;;;;;;2.60;2.40;;;;;;;;;;4978884;28;20222;-77
2022/07/17 13:49:07;;;;;;;2.38;2.17;;;;;;;;;;5011099;28;20190;-77
2022/07/17 13:51:35;;;;;;;2.88;2.53;;;;;;;;;;4993486;28;20199;-77
2022/07/17 13:54:02;;;;;;;3.33;2.30;;;;;;;;;;5011852;28;20205;-77
2022/07/17 13:59:52;;;;;;;2.55;2.35;;;;;;;;;;5012242;28;20163;-77
2022/07/17 14:02:19;;;;;;;2.75;2.55;;;;;;;;;;5011569;28;20665;-77
2022/07/17 14:04:47;;;;;;;3.80;2.63;;;;;;;;;;4994463;28;20215;-77
2022/07/17 14:07:14;;;;;;;2.95;2.45;;;;;;;;;;4978259;28;20206;-77
2022/07/17 14:09:41;;;;;;;4.03;2.40;;;;;;;;;;5011743;28;20575;-77
2022/07/17 14:12:08;;;;;;;2.70;2.50;;;;;;;;;;4990830;28;20232;-77
2022/07/17 14:14:36;;;;;;;4.32;2.60;;;;;;;;;;4991926;28;20203;-78
2022/07/17 14:17:04;;;;;;;2.88;2.60;;;;;;;;;;4990662;28;20586;-78
2022/07/17 14:19:31;;;;;;;2.65;2.40;;;;;;;;;;4990816;28;20213;-77
2022/07/17 14:21:58;;;;;;;4.30;3.17;;;;;;;;;;4990849;28;20223;-77
2022/07/17 14:24:25;;;;;;;2.50;2.30;;;;;;;;;;4990624;28;20192;-77
2022/07/17 14:26:53;;;;;;;2.78;2.58;;;;;;;;;;4990217;28;20200;-77
2022/07/17 14:29:20;;;;;;;2.30;2.05;;;;;;;;;;4990696;28;20203;-77
2022/07/17 14:31:46;;;;;;;2.70;2.50;;;;;;;;;;4989246;28;20196;-77
2022/07/17 14:34:16;;;;;;;2.80;2.42;;;;;;;;;;4991869;28;20211;-78
2022/07/17 14:36:44;;;;;;;2.42;2.20;;;;;;;;;;4975173;28;20220;-76
2022/07/17 14:39:11;;;;;;;3.15;2.70;;;;;;;;;;4990631;28;20196;-75
2022/07/17 14:41:38;;;;;;;4.32;2.45;;;;;;;;;;4990574;28;20220;-78
2022/07/17 14:44:05;;;;;;;6.00;2.95;;;;;;;;;;4991450;28;20204;-78
2022/07/17 14:46:32;;;;;;;2.70;2.50;;;;;;;;;;4990414;28;20204;-78
2022/07/17 14:49:00;;;;;;;2.70;2.50;;;;;;;;;;4991091;28;20201;-77
2022/07/17 14:51:29;;;;;;;4.10;2.50;;;;;;;;;;4974517;28;20211;-75
2022/07/17 14:53:56;;;;;;;3.67;2.60;;;;;;;;;;4990387;28;20208;-76
2022/07/17 14:56:23;;;;;;;5.53;2.85;;;;;;;;;;4992056;28;20224;-75
2022/07/17 14:58:50;;;;;;;3.33;2.47;;;;;;;;;;4994181;28;20205;-76
2022/07/17 15:01:18;;;;;;;2.30;2.10;;;;;;;;;;4995186;28;20200;-75
2022/07/17 15:03:46;;;;;;;2.83;2.50;;;;;;;;;;4978260;28;20251;-74
2022/07/17 15:06:13;;;;;;;2.78;2.55;;;;;;;;;;4978530;28;20231;-74
2022/07/17 15:08:42;;;;;;;3.70;2.33;;;;;;;;;;4994988;28;20299;-74
2022/07/17 15:11:08;;;;;;;2.50;2.30;;;;;;;;;;4996602;28;20235;-77
2022/07/17 15:13:36;;;;;;;3.05;2.50;;;;;;;;;;5014844;28;20207;-76
2022/07/17 15:16:03;;;;;;;3.53;2.92;;;;;;;;;;5014468;28;20227;-74
2022/07/17 15:18:30;;;;;;;2.58;2.38;;;;;;;;;;5014290;28;20203;-74
2022/07/17 15:20:57;;;;;;;2.90;2.70;;;;;;;;;;5014677;28;20207;-74
2022/07/17 15:23:24;;;;;;;3.00;2.80;;;;;;;;;;5012991;28;20202;-74